sensor_id;sensor_type;location;lat;lon;timestamp;temperature;humidity
25208;DHT22;13153;52.316;21.166;2022-08-21T10:53:15;28.00;96.10
25208;DHT22;13153;52.316;21.166;2022-08-21T10:56:10;27.90;95.40
25208;DHT22;13153;52.316;21.166;2022-08-21T10:59:00;27.80;96.40
25208;DHT22;13153;52.316;21.166;2022-08-21T11:07:37;27.80;97.10
25208;DHT22;13153;52.316;21.166;2022-08-21T11:10:26;27.70;97.10
25208;DHT22;13153;52.316;21.166;2022-08-21T11:13:13;27.70;96.80
25208;DHT22;13153;52.316;21.166;2022-08-21T11:15:53;27.60;97.70
25208;DHT22;13153;52.316;21.166;2022-08-21T11:18:41;27.50;98.00
25208;DHT22;13153;52.316;21.166;2022-08-21T11:21:19;27.50;98.40
25208;DHT22;13153;52.316;21.166;2022-08-21T11:24:00;27.40;97.60
25208;DHT22;13153;52.316;21.166;2022-08-21T11:26:47;27.30;97.80
25208;DHT22;13153;52.316;21.166;2022-08-21T11:29:29;27.20;98.60
25208;DHT22;13153;52.316;21.166;2022-08-21T11:32:07;27.30;98.50
25208;DHT22;13153;52.316;21.166;2022-08-21T11:35:08;27.30;98.20
25208;DHT22;13153;52.316;21.166;2022-08-21T11:40:52;27.40;98.10
25208;DHT22;13153;52.316;21.166;2022-08-21T11:43:46;27.40;98.60
25208;DHT22;13153;52.316;21.166;2022-08-21T11:46:25;27.50;98.30
25208;DHT22;13153;52.316;21.166;2022-08-21T11:55:03;27.60;97.70
25208;DHT22;13153;52.316;21.166;2022-08-21T12:00:20;27.60;98.90
25208;DHT22;13153;52.316;21.166;2022-08-21T12:02:54;27.70;98.60
25208;DHT22;13153;52.316;21.166;2022-08-21T12:05:33;27.60;99.40
25208;DHT22;13153;52.316;21.166;2022-08-21T12:10:45;27.60;99.40
25208;DHT22;13153;52.316;21.166;2022-08-21T12:13:27;27.60;99.90
25208;DHT22;13153;52.316;21.166;2022-08-21T12:16:15;27.60;99.00
25208;DHT22;13153;52.316;21.166;2022-08-21T12:21:59;27.30;99.50
25208;DHT22;13153;52.316;21.166;2022-08-21T12:29:52;27.20;99.90
25208;DHT22;13153;52.316;21.166;2022-08-21T12:32:28;27.20;99.60
25208;DHT22;13153;52.316;21.166;2022-08-21T12:35:18;27.20;98.90
25208;DHT22;13153;52.316;21.166;2022-08-21T12:38:09;27.20;99.10
25208;DHT22;13153;52.316;21.166;2022-08-21T12:41:17;27.20;99.00
25208;DHT22;13153;52.316;21.166;2022-08-21T12:43:53;27.10;99.70
25208;DHT22;13153;52.316;21.166;2022-08-21T12:46:32;27.20;99.90
25208;DHT22;13153;52.316;21.166;2022-08-21T12:49:09;27.00;99.90
25208;DHT22;13153;52.316;21.166;2022-08-21T12:52:01;27.00;99.90
25208;DHT22;13153;52.316;21.166;2022-08-21T12:54:43;26.90;99.90
25208;DHT22;13153;52.316;21.166;2022-08-21T12:57:24;26.90;99.90
25208;DHT22;13153;52.316;21.166;2022-08-21T13:00:00;26.90;99.90
25208;DHT22;13153;52.316;21.166;2022-08-21T13:02:32;26.90;99.90
25208;DHT22;13153;52.316;21.166;2022-08-21T13:05:05;26.90;99.90
25208;DHT22;13153;52.316;21.166;2022-08-21T13:07:36;27.00;99.90
25208;DHT22;13153;52.316;21.166;2022-08-21T13:10:07;27.00;99.90
25208;DHT22;13153;52.316;21.166;2022-08-21T13:12:43;27.00;99.90
25208;DHT22;13153;52.316;21.166;2022-08-21T13:15:11;27.00;99.90
25208;DHT22;13153;52.316;21.166;2022-08-21T13:17:41;27.00;99.90
25208;DHT22;13153;52.316;21.166;2022-08-21T13:20:27;27.00;99.90
25208;DHT22;13153;52.316;21.166;2022-08-21T13:22:55;26.80;99.90
25208;DHT22;13153;52.316;21.166;2022-08-21T13:25:26;26.70;99.90
25208;DHT22;13153;52.316;21.166;2022-08-21T13:28:08;26.60;99.90
25208;DHT22;13153;52.316;21.166;2022-08-21T13:30:43;26.50;99.90
25208;DHT22;13153;52.316;21.166;2022-08-21T13:33:14;26.50;99.90
25208;DHT22;13153;52.316;21.166;2022-08-21T13:38:25;26.50;99.90
25208;DHT22;13153;52.316;21.166;2022-08-21T13:41:02;26.50;99.90
25208;DHT22;13153;52.316;21.166;2022-08-21T13:43:34;26.60;99.90
25208;DHT22;13153;52.316;21.166;2022-08-21T13:46:02;26.60;99.90
25208;DHT22;13153;52.316;21.166;2022-08-21T13:48:35;26.70;99.90
25208;DHT22;13153;52.316;21.166;2022-08-21T13:51:02;26.70;99.90
25208;DHT22;13153;52.316;21.166;2022-08-21T13:56:06;26.60;99.90
25208;DHT22;13153;52.316;21.166;2022-08-21T13:58:43;26.60;99.90
25208;DHT22;13153;52.316;21.166;2022-08-21T14:04:36;26.60;99.90
25208;DHT22;13153;52.316;21.166;2022-08-21T14:07:01;26.60;99.90
25208;DHT22;13153;52.316;21.166;2022-08-21T14:09:34;26.50;99.90
25208;DHT22;13153;52.316;21.166;2022-08-21T14:12:16;26.50;99.90
25208;DHT22;13153;52.316;21.166;2022-08-21T14:15:14;26.40;99.90
25208;DHT22;13153;52.316;21.166;2022-08-21T14:17:42;26.40;99.90
25208;DHT22;13153;52.316;21.166;2022-08-21T14:20:33;26.50;99.90
25208;DHT22;13153;52.316;21.166;2022-08-21T14:23:00;26.50;99.90
25208;DHT22;13153;52.316;21.166;2022-08-21T14:25:37;26.50;99.90
25208;DHT22;13153;52.316;21.166;2022-08-21T14:28:23;26.50;99.90
25208;DHT22;13153;52.316;21.166;2022-08-21T14:30:52;26.50;99.90
25208;DHT22;13153;52.316;21.166;2022-08-21T14:33:29;26.50;99.90
25208;DHT22;13153;52.316;21.166;2022-08-21T14:35:58;26.50;99.90
25208;DHT22;13153;52.316;21.166;2022-08-21T14:38:26;26.50;99.90
25208;DHT22;13153;52.316;21.166;2022-08-21T14:40:55;26.40;99.90
25208;DHT22;13153;52.316;21.166;2022-08-21T14:43:26;26.40;99.90
25208;DHT22;13153;52.316;21.166;2022-08-21T14:45:54;26.30;99.90
25208;DHT22;13153;52.316;21.166;2022-08-21T14:48:21;26.30;99.90
25208;DHT22;13153;52.316;21.166;2022-08-21T14:50:47;26.30;99.90
25208;DHT22;13153;52.316;21.166;2022-08-21T14:53:12;26.30;99.90
25208;DHT22;13153;52.316;21.166;2022-08-21T14:55:39;26.20;99.90
25208;DHT22;13153;52.316;21.166;2022-08-21T14:58:25;26.20;99.90
25208;DHT22;13153;52.316;21.166;2022-08-21T15:00:52;26.20;99.90
25208;DHT22;13153;52.316;21.166;2022-08-21T15:03:19;26.20;99.90
25208;DHT22;13153;52.316;21.166;2022-08-21T15:05:47;26.30;99.90
25208;DHT22;13153;52.316;21.166;2022-08-21T15:08:14;26.20;99.90
25208;DHT22;13153;52.316;21.166;2022-08-21T15:10:40;26.20;99.90
25208;DHT22;13153;52.316;21.166;2022-08-21T15:13:06;26.20;99.90
25208;DHT22;13153;52.316;21.166;2022-08-21T15:15:38;26.20;99.90
25208;DHT22;13153;52.316;21.166;2022-08-21T15:18:06;26.20;99.90
25208;DHT22;13153;52.316;21.166;2022-08-21T15:20:32;26.10;99.90
25208;DHT22;13153;52.316;21.166;2022-08-21T15:22:58;26.00;99.90
25208;DHT22;13153;52.316;21.166;2022-08-21T15:25:24;26.00;99.90
25208;DHT22;13153;52.316;21.166;2022-08-21T15:27:50;25.90;99.90
25208;DHT22;13153;52.316;21.166;2022-08-21T15:30:16;25.80;99.90
25208;DHT22;13153;52.316;21.166;2022-08-21T15:32:42;25.90;99.90
25208;DHT22;13153;52.316;21.166;2022-08-21T15:35:08;25.80;99.90
25208;DHT22;13153;52.316;21.166;2022-08-21T15:37:35;25.80;99.90
25208;DHT22;13153;52.316;21.166;2022-08-21T15:40:01;25.80;99.90
25208;DHT22;13153;52.316;21.166;2022-08-21T15:42:28;25.80;99.90
25208;DHT22;13153;52.316;21.166;2022-08-21T15:44:55;25.80;99.90
25208;DHT22;13153;52.316;21.166;2022-08-21T15:47:28;25.80;99.90
25208;DHT22;13153;52.316;21.166;2022-08-21T15:49:56;25.70;99.90
25208;DHT22;13153;52.316;21.166;2022-08-21T15:52:22;25.70;99.90
25208;DHT22;13153;52.316;21.166;2022-08-21T15:54:49;25.70;99.90
25208;DHT22;13153;52.316;21.166;2022-08-21T15:57:17;25.70;99.90
25208;DHT22;13153;52.316;21.166;2022-08-21T16:00:03;25.60;99.90
25208;DHT22;13153;52.316;21.166;2022-08-21T16:02:39;25.60;99.90
25208;DHT22;13153;52.316;21.166;2022-08-21T16:05:09;25.60;99.90
25208;DHT22;13153;52.316;21.166;2022-08-21T16:07:37;25.50;99.90
25208;DHT22;13153;52.316;21.166;2022-08-21T16:10:05;25.50;99.90
25208;DHT22;13153;52.316;21.166;2022-08-21T16:12:35;25.40;99.90
25208;DHT22;13153;52.316;21.166;2022-08-21T16:15:08;25.50;99.90
25208;DHT22;13153;52.316;21.166;2022-08-21T16:17:36;25.40;99.90
25208;DHT22;13153;52.316;21.166;2022-08-21T16:20:09;25.40;99.90
25208;DHT22;13153;52.316;21.166;2022-08-21T16:22:37;25.40;99.90
25208;DHT22;13153;52.316;21.166;2022-08-21T16:25:04;25.40;99.90
25208;DHT22;13153;52.316;21.166;2022-08-21T16:27:32;25.30;99.90
25208;DHT22;13153;52.316;21.166;2022-08-21T16:29:59;25.20;99.90
25208;DHT22;13153;52.316;21.166;2022-08-21T16:32:26;25.30;99.90
25208;DHT22;13153;52.316;21.166;2022-08-21T16:34:52;25.20;99.90
25208;DHT22;13153;52.316;21.166;2022-08-21T16:37:18;25.20;99.90
25208;DHT22;13153;52.316;21.166;2022-08-21T16:39:44;25.10;99.90
25208;DHT22;13153;52.316;21.166;2022-08-21T16:42:13;25.10;99.90
25208;DHT22;13153;52.316;21.166;2022-08-21T16:44:42;25.10;99.90
25208;DHT22;13153;52.316;21.166;2022-08-21T16:47:08;25.10;99.90
25208;DHT22;13153;52.316;21.166;2022-08-21T16:49:35;25.10;99.90
25208;DHT22;13153;52.316;21.166;2022-08-21T16:52:01;25.10;99.90
25208;DHT22;13153;52.316;21.166;2022-08-21T16:54:27;25.00;99.90
25208;DHT22;13153;52.316;21.166;2022-08-21T16:56:55;25.10;99.90
25208;DHT22;13153;52.316;21.166;2022-08-21T16:59:22;25.00;99.90
25208;DHT22;13153;52.316;21.166;2022-08-21T17:01:48;25.00;99.90
25208;DHT22;13153;52.316;21.166;2022-08-21T17:04:13;25.00;99.90
25208;DHT22;13153;52.316;21.166;2022-08-21T17:06:42;25.00;99.90
25208;DHT22;13153;52.316;21.166;2022-08-21T17:09:08;25.00;99.90
25208;DHT22;13153;52.316;21.166;2022-08-21T17:11:38;24.90;99.90
25208;DHT22;13153;52.316;21.166;2022-08-21T17:14:08;24.80;99.90
25208;DHT22;13153;52.316;21.166;2022-08-21T17:16:38;24.80;99.90
25208;DHT22;13153;52.316;21.166;2022-08-21T17:19:06;24.80;99.90
25208;DHT22;13153;52.316;21.166;2022-08-21T17:21:32;24.80;99.90
25208;DHT22;13153;52.316;21.166;2022-08-21T17:23:58;24.80;99.90
25208;DHT22;13153;52.316;21.166;2022-08-21T17:26:24;24.80;99.90
25208;DHT22;13153;52.316;21.166;2022-08-21T17:28:50;24.80;99.90
25208;DHT22;13153;52.316;21.166;2022-08-21T17:31:16;24.80;99.90
25208;DHT22;13153;52.316;21.166;2022-08-21T17:33:47;24.80;99.90
25208;DHT22;13153;52.316;21.166;2022-08-21T17:36:22;24.80;99.90
25208;DHT22;13153;52.316;21.166;2022-08-21T17:38:50;24.70;99.90
25208;DHT22;13153;52.316;21.166;2022-08-21T17:41:16;24.70;99.90
25208;DHT22;13153;52.316;21.166;2022-08-21T17:43:45;24.60;99.90
25208;DHT22;13153;52.316;21.166;2022-08-21T17:46:16;24.60;99.90
25208;DHT22;13153;52.316;21.166;2022-08-21T17:48:45;24.50;99.90
25208;DHT22;13153;52.316;21.166;2022-08-21T17:51:11;24.50;99.90
25208;DHT22;13153;52.316;21.166;2022-08-21T17:53:37;24.50;99.90
25208;DHT22;13153;52.316;21.166;2022-08-21T17:56:04;24.40;99.90
25208;DHT22;13153;52.316;21.166;2022-08-21T17:58:31;24.40;99.90
25208;DHT22;13153;52.316;21.166;2022-08-21T18:01:00;24.40;99.90
25208;DHT22;13153;52.316;21.166;2022-08-21T18:03:31;24.30;99.90
25208;DHT22;13153;52.316;21.166;2022-08-21T18:05:59;24.30;99.90
25208;DHT22;13153;52.316;21.166;2022-08-21T18:08:25;24.20;99.90
25208;DHT22;13153;52.316;21.166;2022-08-21T18:10:52;24.20;99.90
25208;DHT22;13153;52.316;21.166;2022-08-21T18:13:27;24.10;99.90
25208;DHT22;13153;52.316;21.166;2022-08-21T18:15:56;24.10;99.90
25208;DHT22;13153;52.316;21.166;2022-08-21T18:18:23;24.00;99.90
25208;DHT22;13153;52.316;21.166;2022-08-21T18:20:51;24.00;99.90
25208;DHT22;13153;52.316;21.166;2022-08-21T18:23:20;24.00;99.90
25208;DHT22;13153;52.316;21.166;2022-08-21T18:25:50;23.90;99.90
25208;DHT22;13153;52.316;21.166;2022-08-21T18:28:21;23.80;99.90
25208;DHT22;13153;52.316;21.166;2022-08-21T18:30:49;23.80;99.90
25208;DHT22;13153;52.316;21.166;2022-08-21T18:33:16;23.80;99.90
25208;DHT22;13153;52.316;21.166;2022-08-21T18:35:43;23.80;99.90
25208;DHT22;13153;52.316;21.166;2022-08-21T18:38:09;23.70;99.90
25208;DHT22;13153;52.316;21.166;2022-08-21T18:40:38;23.70;99.90
25208;DHT22;13153;52.316;21.166;2022-08-21T18:43:09;23.70;99.90
25208;DHT22;13153;52.316;21.166;2022-08-21T18:45:37;23.60;99.90
25208;DHT22;13153;52.316;21.166;2022-08-21T18:48:07;23.60;99.90
25208;DHT22;13153;52.316;21.166;2022-08-21T18:50:37;23.60;99.90
25208;DHT22;13153;52.316;21.166;2022-08-21T18:53:06;23.50;99.90
25208;DHT22;13153;52.316;21.166;2022-08-21T18:55:34;23.50;99.90
25208;DHT22;13153;52.316;21.166;2022-08-21T18:58:01;23.50;99.90
25208;DHT22;13153;52.316;21.166;2022-08-21T19:00:33;23.50;99.90
25208;DHT22;13153;52.316;21.166;2022-08-21T19:03:03;23.50;99.90
25208;DHT22;13153;52.316;21.166;2022-08-21T19:05:29;23.40;99.90
25208;DHT22;13153;52.316;21.166;2022-08-21T19:07:56;23.40;99.90
25208;DHT22;13153;52.316;21.166;2022-08-21T19:10:23;23.40;99.90
25208;DHT22;13153;52.316;21.166;2022-08-21T19:12:49;23.40;99.90
25208;DHT22;13153;52.316;21.166;2022-08-21T19:15:19;23.40;99.90
25208;DHT22;13153;52.316;21.166;2022-08-21T19:17:48;23.40;99.90
25208;DHT22;13153;52.316;21.166;2022-08-21T19:20:23;23.40;99.90
25208;DHT22;13153;52.316;21.166;2022-08-21T19:22:52;23.40;99.90
25208;DHT22;13153;52.316;21.166;2022-08-21T19:25:20;23.50;99.90
25208;DHT22;13153;52.316;21.166;2022-08-21T19:27:47;23.40;99.90
25208;DHT22;13153;52.316;21.166;2022-08-21T19:30:14;23.40;99.90
25208;DHT22;13153;52.316;21.166;2022-08-21T19:32:42;23.50;99.90
25208;DHT22;13153;52.316;21.166;2022-08-21T19:35:10;23.40;99.90
25208;DHT22;13153;52.316;21.166;2022-08-21T19:37:37;23.40;99.90
25208;DHT22;13153;52.316;21.166;2022-08-21T19:40:04;23.30;99.90
25208;DHT22;13153;52.316;21.166;2022-08-21T19:42:32;23.30;99.90
25208;DHT22;13153;52.316;21.166;2022-08-21T19:44:59;23.30;99.90
25208;DHT22;13153;52.316;21.166;2022-08-21T19:47:25;23.20;99.90
25208;DHT22;13153;52.316;21.166;2022-08-21T19:49:55;23.20;99.90
25208;DHT22;13153;52.316;21.166;2022-08-21T19:52:23;23.20;99.90
25208;DHT22;13153;52.316;21.166;2022-08-21T19:54:49;23.10;99.90
25208;DHT22;13153;52.316;21.166;2022-08-21T19:57:15;23.10;99.90
25208;DHT22;13153;52.316;21.166;2022-08-21T19:59:41;23.10;99.90
25208;DHT22;13153;52.316;21.166;2022-08-21T20:02:09;23.00;99.90
25208;DHT22;13153;52.316;21.166;2022-08-21T20:04:36;23.00;99.90
25208;DHT22;13153;52.316;21.166;2022-08-21T20:07:03;22.90;99.90
25208;DHT22;13153;52.316;21.166;2022-08-21T20:09:29;22.90;99.90
25208;DHT22;13153;52.316;21.166;2022-08-21T20:12:03;22.90;99.90
25208;DHT22;13153;52.316;21.166;2022-08-21T20:14:32;22.80;99.90
25208;DHT22;13153;52.316;21.166;2022-08-21T20:17:04;22.80;99.90
25208;DHT22;13153;52.316;21.166;2022-08-21T20:19:33;22.70;99.90
25208;DHT22;13153;52.316;21.166;2022-08-21T20:21:59;22.70;99.90
25208;DHT22;13153;52.316;21.166;2022-08-21T20:24:25;22.70;99.90
25208;DHT22;13153;52.316;21.166;2022-08-21T20:26:51;22.70;99.90
25208;DHT22;13153;52.316;21.166;2022-08-21T20:29:18;22.60;99.90
25208;DHT22;13153;52.316;21.166;2022-08-21T20:31:45;22.60;99.90
25208;DHT22;13153;52.316;21.166;2022-08-21T20:34:11;22.50;99.90
25208;DHT22;13153;52.316;21.166;2022-08-21T20:36:37;22.50;99.90
25208;DHT22;13153;52.316;21.166;2022-08-21T20:39:04;22.50;99.90
25208;DHT22;13153;52.316;21.166;2022-08-21T20:41:30;22.50;99.90
25208;DHT22;13153;52.316;21.166;2022-08-21T20:43:58;22.40;99.90
25208;DHT22;13153;52.316;21.166;2022-08-21T20:46:26;22.40;99.90
25208;DHT22;13153;52.316;21.166;2022-08-21T20:48:54;22.40;99.90
25208;DHT22;13153;52.316;21.166;2022-08-21T20:51:34;22.30;99.90
25208;DHT22;13153;52.316;21.166;2022-08-21T20:57:00;22.20;99.90
25208;DHT22;13153;52.316;21.166;2022-08-21T21:05:30;22.10;99.90
25208;DHT22;13153;52.316;21.166;2022-08-21T21:08:08;22.10;99.90
25208;DHT22;13153;52.316;21.166;2022-08-21T21:13:37;22.00;99.90
25208;DHT22;13153;52.316;21.166;2022-08-21T21:16:17;22.00;99.90
25208;DHT22;13153;52.316;21.166;2022-08-21T21:27:47;21.90;99.90
25208;DHT22;13153;52.316;21.166;2022-08-21T21:30:36;21.90;99.90
25208;DHT22;13153;52.316;21.166;2022-08-21T21:33:07;21.90;99.90
25208;DHT22;13153;52.316;21.166;2022-08-21T21:35:42;21.90;99.90
25208;DHT22;13153;52.316;21.166;2022-08-21T21:38:31;21.80;99.90
25208;DHT22;13153;52.316;21.166;2022-08-21T21:44:07;21.80;99.90
25208;DHT22;13153;52.316;21.166;2022-08-21T21:47:14;21.70;99.90
25208;DHT22;13153;52.316;21.166;2022-08-21T21:58:36;21.70;99.90
25208;DHT22;13153;52.316;21.166;2022-08-21T22:01:18;21.60;99.90
25208;DHT22;13153;52.316;21.166;2022-08-21T22:03:56;21.60;99.90
25208;DHT22;13153;52.316;21.166;2022-08-21T22:06:35;21.60;99.90
25208;DHT22;13153;52.316;21.166;2022-08-21T22:11:57;21.50;99.90
25208;DHT22;13153;52.316;21.166;2022-08-21T22:14:32;21.60;99.90
25208;DHT22;13153;52.316;21.166;2022-08-21T22:17:26;21.50;99.90
25208;DHT22;13153;52.316;21.166;2022-08-21T22:19:54;21.50;99.90
25208;DHT22;13153;52.316;21.166;2022-08-21T22:22:25;21.50;99.90
25208;DHT22;13153;52.316;21.166;2022-08-21T22:24:58;21.40;99.90
25208;DHT22;13153;52.316;21.166;2022-08-21T22:27:34;21.40;99.90
25208;DHT22;13153;52.316;21.166;2022-08-21T22:30:08;21.40;99.90
25208;DHT22;13153;52.316;21.166;2022-08-21T22:32:39;21.40;99.90
25208;DHT22;13153;52.316;21.166;2022-08-21T22:35:12;21.40;99.90
25208;DHT22;13153;52.316;21.166;2022-08-21T22:37:49;21.30;99.90
25208;DHT22;13153;52.316;21.166;2022-08-21T22:40:33;21.30;99.90
25208;DHT22;13153;52.316;21.166;2022-08-21T22:43:07;21.30;99.90
25208;DHT22;13153;52.316;21.166;2022-08-21T22:48:39;21.20;99.90
25208;DHT22;13153;52.316;21.166;2022-08-21T22:51:40;21.20;99.90
25208;DHT22;13153;52.316;21.166;2022-08-21T22:54:12;21.10;99.90
25208;DHT22;13153;52.316;21.166;2022-08-21T22:56:56;21.10;99.90
25208;DHT22;13153;52.316;21.166;2022-08-21T22:59:29;21.10;99.90
25208;DHT22;13153;52.316;21.166;2022-08-21T23:05:20;21.10;99.90
25208;DHT22;13153;52.316;21.166;2022-08-21T23:10:59;21.00;99.90
25208;DHT22;13153;52.316;21.166;2022-08-21T23:13:37;21.00;99.90
